createdAt,value
2018-06-09T00:02:15.165Z,21.10
2018-06-09T00:06:18.547Z,21.00
2018-06-09T00:10:21.926Z,21.00
2018-06-09T00:14:25.291Z,21.00
2018-06-09T00:18:28.686Z,20.90
2018-06-09T00:22:32.056Z,20.90
2018-06-09T00:26:35.491Z,20.90
2018-06-09T00:30:38.896Z,20.90
2018-06-09T00:34:42.257Z,20.80
2018-06-09T00:38:45.607Z,20.80
2018-06-09T00:42:48.986Z,20.80
2018-06-09T00:46:52.319Z,20.70
2018-06-09T00:50:55.683Z,20.70
2018-06-09T00:54:59.036Z,20.70
2018-06-09T00:59:02.390Z,20.70
2018-06-09T01:03:05.899Z,20.60
2018-06-09T01:07:09.256Z,20.60
2018-06-09T01:11:12.615Z,20.50
2018-06-09T01:15:15.963Z,20.50
2018-06-09T01:19:19.323Z,20.50
2018-06-09T01:23:22.682Z,20.50
2018-06-09T01:27:26.035Z,20.50
2018-06-09T01:31:29.398Z,20.50
2018-06-09T01:35:32.778Z,20.40
2018-06-09T01:43:39.302Z,20.40
2018-06-09T01:47:42.671Z,20.40
2018-06-09T01:51:52.567Z,20.30
2018-06-09T01:55:55.891Z,20.30
2018-06-09T01:59:59.243Z,20.30
2018-06-09T02:04:02.789Z,20.30
2018-06-09T02:08:06.147Z,20.20
2018-06-09T02:12:10.341Z,20.20
2018-06-09T02:16:13.703Z,20.20
2018-06-09T02:20:17.055Z,20.20
2018-06-09T02:24:20.396Z,20.20
2018-06-09T02:28:23.927Z,20.20
2018-06-09T02:32:27.279Z,20.20
2018-06-09T02:36:30.643Z,20.10
2018-06-09T02:40:33.991Z,20.10
2018-06-09T02:44:37.428Z,20.10
2018-06-09T02:48:40.775Z,20.10
2018-06-09T02:52:44.136Z,20.00
2018-06-09T02:56:47.468Z,20.00
2018-06-09T03:00:50.815Z,20.00
2018-06-09T03:04:54.203Z,19.90
2018-06-09T03:08:57.562Z,19.90
2018-06-09T03:13:00.917Z,19.90
2018-06-09T03:17:04.603Z,19.90
2018-06-09T03:21:07.975Z,19.90
2018-06-09T03:25:11.331Z,19.90
2018-06-09T03:29:14.695Z,19.80
2018-06-09T03:33:18.045Z,19.80
2018-06-09T03:37:21.404Z,19.80
2018-06-09T03:41:24.869Z,19.80
2018-06-09T03:45:28.219Z,19.80
2018-06-09T03:49:31.580Z,19.70
2018-06-09T03:53:34.960Z,19.70
2018-06-09T03:57:38.328Z,19.70
2018-06-09T04:01:41.651Z,19.70
2018-06-09T04:05:45.027Z,19.70
2018-06-09T04:09:48.518Z,19.60
2018-06-09T04:13:51.904Z,19.60
2018-06-09T04:17:55.253Z,19.60
2018-06-09T04:21:58.583Z,19.60
2018-06-09T04:26:01.940Z,19.60
2018-06-09T04:30:05.312Z,19.60
2018-06-09T04:34:08.672Z,19.70
2018-06-09T04:38:12.016Z,19.70
2018-06-09T04:42:15.359Z,19.70
2018-06-09T04:46:18.708Z,19.70
2018-06-09T04:50:22.067Z,19.70
2018-06-09T04:54:25.420Z,19.70
2018-06-09T04:58:28.816Z,19.70
2018-06-09T05:02:32.177Z,19.80
2018-06-09T05:06:35.541Z,19.70
2018-06-09T05:10:38.907Z,19.80
2018-06-09T05:14:42.343Z,19.80
2018-06-09T05:18:45.696Z,19.80
2018-06-09T05:22:49.034Z,19.90
2018-06-09T05:26:52.387Z,19.90
2018-06-09T05:30:55.790Z,19.90
2018-06-09T05:34:59.247Z,20.00
2018-06-09T05:39:02.618Z,20.00
2018-06-09T05:43:05.962Z,20.00
2018-06-09T05:47:09.318Z,20.00
2018-06-09T05:51:12.703Z,20.10
2018-06-09T05:55:16.082Z,20.20
2018-06-09T05:59:19.431Z,20.20
2018-06-09T06:03:22.815Z,20.30
2018-06-09T06:07:27.155Z,20.30
2018-06-09T06:11:30.565Z,20.40
2018-06-09T06:15:33.939Z,20.50
2018-06-09T06:19:37.292Z,20.60
2018-06-09T06:23:40.930Z,20.60
2018-06-09T06:27:44.278Z,20.70
2018-06-09T06:31:47.652Z,20.70
2018-06-09T06:35:51.011Z,20.80
2018-06-09T06:39:54.369Z,20.90
2018-06-09T06:43:57.743Z,20.90
2018-06-09T06:48:01.103Z,20.90
2018-06-09T06:52:04.466Z,21.00
2018-06-09T06:56:07.839Z,21.00
2018-06-09T07:00:11.166Z,21.10
2018-06-09T07:04:14.595Z,21.10
2018-06-09T07:08:17.927Z,21.20
2018-06-09T07:12:21.286Z,21.30
2018-06-09T07:16:24.639Z,21.30
2018-06-09T07:20:28.071Z,21.40
2018-06-09T07:24:31.402Z,21.50
2018-06-09T07:28:34.736Z,21.60
2018-06-09T07:32:38.084Z,21.70
2018-06-09T07:36:41.432Z,21.80
2018-06-09T07:40:44.785Z,21.90
2018-06-09T07:44:48.120Z,21.90
2018-06-09T07:48:51.464Z,22.00
2018-06-09T07:52:54.818Z,22.10
2018-06-09T07:56:58.159Z,22.20
2018-06-09T08:01:01.595Z,22.30
2018-06-09T08:05:04.930Z,22.30
2018-06-09T08:09:08.239Z,22.40
2018-06-09T08:13:11.574Z,22.50
2018-06-09T08:17:14.926Z,22.60
2018-06-09T08:21:18.320Z,22.70
2018-06-09T08:25:21.690Z,22.80
2018-06-09T08:29:25.000Z,22.90
2018-06-09T08:33:28.327Z,23.00
2018-06-09T08:37:31.755Z,23.20
2018-06-09T08:41:35.175Z,23.30
2018-06-09T08:45:38.518Z,23.50
2018-06-09T08:49:42.008Z,23.70
2018-06-09T08:53:45.364Z,23.90
2018-06-09T08:57:48.762Z,24.10
2018-06-09T09:01:52.135Z,24.30
2018-06-09T09:05:55.467Z,24.50
2018-06-09T09:09:58.796Z,24.60
2018-06-09T09:14:02.183Z,24.70
2018-06-09T09:18:05.515Z,24.90
2018-06-09T09:22:08.861Z,25.00
2018-06-09T09:26:12.188Z,25.10
2018-06-09T09:30:15.564Z,25.30
2018-06-09T09:34:18.911Z,25.40
2018-06-09T09:38:22.250Z,25.60
2018-06-09T09:42:25.573Z,25.80
2018-06-09T09:46:28.902Z,26.00
2018-06-09T09:50:32.332Z,26.20
2018-06-09T09:54:35.651Z,26.40
2018-06-09T09:58:38.996Z,26.60
2018-06-09T10:02:42.329Z,26.80
2018-06-09T10:06:45.683Z,27.00
2018-06-09T10:10:49.030Z,27.20
2018-06-09T10:14:52.489Z,27.40
2018-06-09T10:18:55.962Z,27.60
2018-06-09T10:22:59.302Z,27.80
2018-06-09T10:27:02.636Z,28.00
2018-06-09T10:31:05.974Z,28.20
2018-06-09T10:35:09.307Z,28.30
2018-06-09T10:39:12.647Z,28.40
2018-06-09T10:43:15.995Z,28.60
2018-06-09T10:47:19.340Z,28.70
2018-06-09T10:51:22.979Z,28.90
2018-06-09T10:55:26.305Z,29.10
2018-06-09T10:59:29.646Z,29.20
2018-06-09T11:03:32.988Z,29.30
2018-06-09T11:07:36.327Z,29.30
2018-06-09T11:11:39.651Z,29.40
2018-06-09T11:15:43.007Z,29.50
2018-06-09T11:19:46.395Z,29.70
2018-06-09T11:23:49.728Z,29.80
2018-06-09T11:27:53.209Z,30.00
2018-06-09T11:31:56.525Z,30.20
2018-06-09T11:35:59.871Z,30.40
2018-06-09T11:40:03.206Z,30.60
2018-06-09T11:44:06.601Z,30.80
2018-06-09T11:48:10.048Z,31.00
2018-06-09T11:52:13.388Z,31.20
2018-06-09T11:56:16.711Z,31.40
2018-06-09T12:00:20.054Z,31.50
2018-06-09T12:04:23.394Z,31.60
2018-06-09T12:08:26.727Z,31.80
2018-06-09T12:12:30.052Z,31.90
2018-06-09T12:16:33.374Z,32.00
2018-06-09T12:20:36.707Z,32.20
2018-06-09T12:24:40.055Z,32.20
2018-06-09T12:28:43.406Z,32.30
2018-06-09T12:32:46.743Z,32.30
2018-06-09T12:36:50.052Z,32.30
2018-06-09T12:40:53.394Z,32.40
2018-06-09T12:44:56.723Z,32.50
2018-06-09T12:49:00.450Z,32.60
2018-06-09T12:53:03.795Z,32.70
2018-06-09T12:57:07.128Z,32.80
2018-06-09T13:01:10.451Z,32.90
2018-06-09T13:05:13.831Z,32.90
2018-06-09T13:09:17.139Z,33.00
2018-06-09T13:13:20.520Z,33.00
2018-06-09T13:17:23.831Z,33.10
2018-06-09T13:21:27.210Z,33.20
2018-06-09T13:25:30.548Z,33.20
2018-06-09T13:29:33.879Z,33.20
2018-06-09T13:33:37.434Z,33.40
2018-06-09T13:37:40.736Z,33.50
2018-06-09T13:41:44.157Z,33.50
2018-06-09T13:45:47.426Z,33.50
2018-06-09T13:49:50.750Z,33.60
2018-06-09T13:53:54.094Z,33.60
2018-06-09T13:57:57.402Z,33.70
2018-06-09T14:02:00.763Z,33.70
2018-06-09T14:06:04.107Z,33.80
2018-06-09T14:10:07.489Z,33.80
2018-06-09T14:14:10.866Z,33.80
2018-06-09T14:18:14.185Z,33.90
2018-06-09T14:22:17.519Z,33.90
2018-06-09T14:26:20.851Z,34.00
2018-06-09T14:30:24.196Z,33.90
2018-06-09T14:34:28.086Z,33.90
2018-06-09T14:38:32.444Z,34.00
2018-06-09T14:42:35.775Z,34.00
2018-06-09T14:46:40.087Z,34.10
2018-06-09T14:50:43.413Z,34.10
2018-06-09T14:54:46.742Z,34.10
2018-06-09T14:58:50.073Z,34.20
2018-06-09T15:02:53.395Z,34.10
2018-06-09T15:06:56.718Z,34.10
2018-06-09T15:11:00.057Z,34.10
2018-06-09T15:15:03.468Z,34.20
2018-06-09T15:19:06.897Z,34.20
2018-06-09T15:23:10.232Z,34.20
2018-06-09T15:27:13.633Z,34.30
2018-06-09T15:31:17.064Z,34.30
2018-06-09T15:35:20.417Z,34.20
2018-06-09T15:39:23.726Z,34.20
2018-06-09T15:43:27.506Z,34.20
2018-06-09T15:47:30.975Z,34.30
2018-06-09T15:51:34.307Z,34.40
2018-06-09T15:55:37.641Z,34.50
2018-06-09T15:59:40.963Z,34.70
2018-06-09T16:03:44.286Z,34.90
2018-06-09T16:07:47.621Z,35.00
2018-06-09T16:11:50.953Z,35.10
2018-06-09T16:15:54.329Z,35.20
2018-06-09T16:19:57.677Z,35.30
2018-06-09T16:24:07.682Z,35.40
2018-06-09T16:28:11.022Z,35.40
2018-06-09T16:32:14.404Z,35.40
2018-06-09T16:36:17.751Z,35.30
2018-06-09T16:40:21.113Z,35.30
2018-06-09T16:44:24.423Z,35.10
2018-06-09T16:48:27.803Z,35.10
2018-06-09T16:52:31.129Z,34.90
2018-06-09T16:56:34.452Z,34.80
2018-06-09T17:00:38.527Z,34.70
2018-06-09T17:04:43.008Z,34.60
2018-06-09T17:08:47.922Z,34.50
2018-06-09T17:12:52.772Z,34.30
2018-06-09T17:16:56.126Z,34.20
2018-06-09T17:21:00.121Z,34.10
2018-06-09T17:25:04.921Z,34.00
2018-06-09T17:29:08.864Z,33.90
2018-06-09T17:33:13.190Z,33.80
2018-06-09T17:37:17.830Z,33.70
2018-06-09T17:41:21.671Z,33.60
2018-06-09T17:45:32.434Z,33.50
2018-06-09T17:49:37.130Z,33.40
2018-06-09T17:53:42.554Z,33.30
2018-06-09T17:57:47.266Z,33.20
2018-06-09T18:01:51.705Z,33.10
2018-06-09T18:05:56.524Z,33.00
2018-06-09T18:10:01.468Z,33.00
2018-06-09T18:14:04.947Z,32.80
2018-06-09T18:18:08.310Z,32.70
2018-06-09T18:22:11.759Z,32.50
2018-06-09T18:26:15.263Z,32.40
2018-06-09T18:30:19.634Z,32.20
2018-06-09T18:34:25.419Z,31.90
2018-06-09T18:38:30.084Z,31.70
2018-06-09T18:42:34.674Z,31.40
2018-06-09T18:46:39.638Z,31.20
2018-06-09T18:50:43.499Z,30.90
2018-06-09T18:54:48.192Z,30.70
2018-06-09T18:58:52.924Z,30.50
2018-06-09T19:02:57.418Z,30.30
2018-06-09T19:07:00.835Z,30.10
2018-06-09T19:11:04.168Z,29.90
2018-06-09T19:15:07.546Z,29.70
2018-06-09T19:19:10.879Z,29.60
2018-06-09T19:23:14.214Z,29.40
2018-06-09T19:27:17.559Z,29.20
2018-06-09T19:31:22.532Z,29.10
2018-06-09T19:35:27.775Z,29.00
2018-06-09T19:39:31.687Z,28.80
2018-06-09T19:43:36.499Z,28.70
2018-06-09T19:47:39.833Z,28.60
2018-06-09T19:51:43.198Z,28.50
2018-06-09T19:55:46.539Z,28.40
2018-06-09T19:59:49.889Z,28.30
2018-06-09T20:03:53.410Z,28.20
2018-06-09T20:07:56.781Z,28.10
2018-06-09T20:16:03.770Z,27.90
2018-06-09T20:20:07.598Z,27.80
2018-06-09T20:24:10.988Z,27.70
2018-06-09T20:28:14.359Z,27.60
2018-06-09T20:32:19.323Z,27.50
2018-06-09T20:36:24.216Z,27.40
2018-06-09T20:40:28.985Z,27.30
2018-06-09T20:44:34.145Z,27.10
2018-06-09T20:48:39.047Z,27.00
2018-06-09T20:52:43.066Z,27.00
2018-06-09T20:56:47.570Z,26.80
2018-06-09T21:00:52.680Z,26.70
2018-06-09T21:04:58.219Z,26.60
2018-06-09T21:09:03.035Z,26.50
2018-06-09T21:13:08.547Z,26.40
2018-06-09T21:17:11.858Z,26.30
2018-06-09T21:21:15.243Z,26.20
2018-06-09T21:25:18.579Z,26.20
2018-06-09T21:29:27.186Z,26.10
2018-06-09T21:33:47.282Z,26.00
2018-06-09T21:37:50.615Z,26.00
2018-06-09T21:41:59.346Z,25.90
2018-06-09T21:46:02.810Z,25.80
2018-06-09T21:50:06.160Z,25.80
2018-06-09T21:54:09.511Z,25.70
2018-06-09T21:58:12.828Z,25.70
2018-06-09T22:02:16.172Z,25.60
2018-06-09T22:06:19.537Z,25.50
2018-06-09T22:10:22.885Z,25.50
2018-06-09T22:14:26.239Z,25.40
2018-06-09T22:18:29.562Z,25.40
2018-06-09T22:26:41.552Z,25.30
2018-06-09T22:30:44.887Z,25.20
2018-06-09T22:34:48.347Z,25.20
2018-06-09T22:38:51.699Z,25.10
2018-06-09T22:42:55.040Z,25.10
2018-06-09T22:46:58.374Z,25.10
2018-06-09T22:51:01.688Z,25.00
2018-06-09T22:55:05.089Z,25.00
2018-06-09T22:59:08.405Z,25.00
2018-06-09T23:03:11.783Z,24.90
2018-06-09T23:07:15.121Z,24.80
2018-06-09T23:11:18.511Z,24.80
2018-06-09T23:15:21.851Z,24.70
2018-06-09T23:19:25.154Z,24.70
2018-06-09T23:23:28.471Z,24.60
2018-06-09T23:27:31.801Z,24.50
2018-06-09T23:31:35.226Z,24.40
2018-06-09T23:35:38.543Z,24.40
2018-06-09T23:39:41.867Z,24.30
2018-06-09T23:43:45.195Z,24.30
2018-06-09T23:47:48.516Z,24.20
2018-06-09T23:51:51.843Z,24.10
2018-06-09T23:55:55.170Z,24.10
2018-06-09T23:59:58.518Z,24.00
